createdAt,value
2023-01-18T00:06:34.546Z,28.93
2023-01-18T00:16:39.849Z,27.87
2023-01-18T00:26:43.160Z,30.87
2023-01-18T00:36:47.651Z,27.40
2023-01-18T00:46:51.593Z,25.97
2023-01-18T00:57:02.650Z,22.17
2023-01-18T01:07:04.821Z,19.83
2023-01-18T01:17:25.516Z,18.70
2023-01-18T01:27:32.902Z,21.90
2023-01-18T01:37:37.536Z,21.30
2023-01-18T01:47:43.591Z,21.97
2023-01-18T01:57:57.142Z,24.50
2023-01-18T02:08:01.117Z,26.40
2023-01-18T02:18:48.518Z,25.17
2023-01-18T02:29:32.290Z,21.13
2023-01-18T02:39:52.125Z,18.33
2023-01-18T02:49:57.625Z,21.03
2023-01-18T03:00:00.628Z,17.87
2023-01-18T03:10:07.432Z,17.70
2023-01-18T03:20:14.886Z,15.07
2023-01-18T03:30:39.400Z,14.63
2023-01-18T03:40:41.628Z,15.37
2023-01-18T03:50:53.805Z,13.90
2023-01-18T04:00:58.572Z,11.97
2023-01-18T04:11:03.051Z,15.00
2023-01-18T04:21:07.618Z,5.87
2023-01-18T04:31:14.326Z,16.33
2023-01-18T04:41:16.399Z,15.27
2023-01-18T04:51:27.475Z,15.93
2023-01-18T05:01:29.915Z,18.63
2023-01-18T05:11:34.323Z,8.00
2023-01-18T05:21:36.416Z,19.17
2023-01-18T05:31:38.493Z,17.23
2023-01-18T05:41:40.668Z,12.03
2023-01-18T05:51:45.330Z,19.43
2023-01-18T06:01:48.647Z,18.17
2023-01-18T06:11:50.844Z,6.27
2023-01-18T06:21:53.433Z,7.30
2023-01-18T06:32:00.729Z,9.33
2023-01-18T06:42:03.151Z,16.77
2023-01-18T06:52:05.577Z,12.10
2023-01-18T07:02:12.286Z,10.33
2023-01-18T07:12:15.700Z,6.37
2023-01-18T07:22:20.012Z,5.77
2023-01-18T07:32:24.420Z,9.40
2023-01-18T07:42:26.563Z,9.60
2023-01-18T07:52:28.769Z,8.10
2023-01-18T08:02:36.500Z,7.10
2023-01-18T08:12:43.467Z,8.13
2023-01-18T08:22:45.595Z,8.07
2023-01-18T08:32:50.022Z,8.27
2023-01-18T08:43:02.489Z,7.07
2023-01-18T08:53:08.001Z,7.67
2023-01-18T09:03:13.428Z,6.00
2023-01-18T09:13:15.597Z,6.27
2023-01-18T09:23:23.307Z,6.80
2023-01-18T09:33:38.195Z,6.83
2023-01-18T09:43:49.622Z,4.20
2023-01-18T09:54:46.261Z,5.43
2023-01-18T10:05:07.592Z,3.17
2023-01-18T10:15:26.875Z,6.37
2023-01-18T10:25:33.406Z,4.97
2023-01-18T10:35:41.775Z,6.17
2023-01-18T10:45:43.932Z,2.93
2023-01-18T10:55:55.831Z,7.20
2023-01-18T11:06:10.749Z,5.93
2023-01-18T11:16:21.027Z,6.80
2023-01-18T11:26:26.268Z,6.47
2023-01-18T11:36:40.416Z,6.97
2023-01-18T11:46:50.602Z,6.90
2023-01-18T11:56:56.191Z,7.07
2023-01-18T12:07:10.246Z,7.37
2023-01-18T12:17:29.286Z,10.67
2023-01-18T12:27:45.429Z,6.13
2023-01-18T12:38:00.030Z,6.07
2023-01-18T12:48:17.039Z,7.40
2023-01-18T12:58:27.322Z,6.53
2023-01-18T13:08:52.744Z,6.80
2023-01-18T13:18:59.183Z,17.07
2023-01-18T13:29:12.645Z,7.17
2023-01-18T13:39:17.001Z,8.20
2023-01-18T13:49:36.084Z,8.60
2023-01-18T13:59:41.478Z,8.93
2023-01-18T14:09:49.768Z,8.67
2023-01-18T14:20:00.006Z,7.57
2023-01-18T14:30:18.838Z,8.40
2023-01-18T14:40:28.166Z,8.97
2023-01-18T14:50:33.659Z,7.60
2023-01-18T15:00:49.831Z,8.07
2023-01-18T15:10:52.542Z,7.27
2023-01-18T15:21:00.878Z,7.33
2023-01-18T15:31:14.687Z,7.70
2023-01-18T15:41:19.789Z,8.93
2023-01-18T15:51:42.341Z,8.87
2023-01-18T16:01:49.041Z,9.10
2023-01-18T16:11:59.604Z,9.90
2023-01-18T16:22:24.295Z,13.03
2023-01-18T16:32:33.063Z,11.60
2023-01-18T16:42:57.925Z,13.17
2023-01-18T16:53:10.134Z,16.27
2023-01-18T17:03:14.588Z,16.47
2023-01-18T17:13:21.126Z,19.50
2023-01-18T17:23:30.435Z,20.00
2023-01-18T17:33:39.363Z,19.03
2023-01-18T17:43:47.232Z,21.47
2023-01-18T17:53:52.447Z,19.43
2023-01-18T18:03:56.824Z,24.07
2023-01-18T18:13:59.763Z,20.00
2023-01-18T18:24:04.368Z,25.50
2023-01-18T18:34:10.290Z,23.33
2023-01-18T18:44:14.709Z,20.03
2023-01-18T18:54:21.275Z,24.20
2023-01-18T19:04:28.133Z,24.40
2023-01-18T19:14:30.717Z,25.93
2023-01-18T19:24:35.100Z,30.27
2023-01-18T19:34:40.019Z,29.30
2023-01-18T19:44:44.313Z,26.87
2023-01-18T19:54:46.366Z,29.03
2023-01-18T20:04:53.136Z,28.27
2023-01-18T20:14:57.864Z,27.43
2023-01-18T20:25:02.312Z,26.33
2023-01-18T20:35:06.879Z,28.33
2023-01-18T20:45:09.457Z,28.30
2023-01-18T20:55:15.019Z,25.93
2023-01-18T21:05:17.304Z,26.93
2023-01-18T21:15:21.704Z,27.30
2023-01-18T21:25:27.765Z,27.53
2023-01-18T21:35:30.023Z,29.10
2023-01-18T21:45:50.761Z,24.90
2023-01-18T21:56:01.262Z,27.23
2023-01-18T22:06:05.865Z,26.53
2023-01-18T22:16:10.359Z,27.10
2023-01-18T22:26:12.695Z,26.77
2023-01-18T22:36:18.184Z,29.10
2023-01-18T22:46:25.089Z,27.43
2023-01-18T22:56:29.371Z,27.27
2023-01-18T23:06:54.613Z,25.17
2023-01-18T23:17:24.168Z,26.00
2023-01-18T23:27:28.440Z,27.20
2023-01-18T23:37:33.601Z,27.40
2023-01-18T23:47:57.094Z,25.53
2023-01-18T23:57:59.834Z,19.40
